createdAt,value
2022-11-01T00:02:00.959Z,5.75
2022-11-01T00:04:28.452Z,6.18
2022-11-01T00:06:55.754Z,6.13
2022-11-01T00:09:23.073Z,6.10
2022-11-01T00:11:50.390Z,6.07
2022-11-01T00:14:18.540Z,5.75
2022-11-01T00:16:46.047Z,5.88
2022-11-01T00:19:14.558Z,5.93
2022-11-01T00:21:41.811Z,5.20
2022-11-01T00:24:09.100Z,5.07
2022-11-01T00:26:36.405Z,5.10
2022-11-01T00:29:03.769Z,4.68
2022-11-01T00:31:31.080Z,4.97
2022-11-01T00:33:58.380Z,4.93
2022-11-01T00:36:25.763Z,4.85
2022-11-01T00:38:53.617Z,5.10
2022-11-01T00:41:21.854Z,4.82
2022-11-01T00:43:49.540Z,4.88
2022-11-01T00:46:17.416Z,4.68
2022-11-01T00:48:44.732Z,4.80
2022-11-01T00:51:12.180Z,5.15
2022-11-01T00:53:39.401Z,5.20
2022-11-01T00:56:07.337Z,5.57
2022-11-01T00:58:35.581Z,5.00
2022-11-01T01:01:02.953Z,5.32
2022-11-01T01:03:30.277Z,5.25
2022-11-01T01:05:57.811Z,5.18
2022-11-01T01:08:25.965Z,5.28
2022-11-01T01:10:53.207Z,5.13
2022-11-01T01:13:20.803Z,5.60
2022-11-01T01:15:48.155Z,4.65
2022-11-01T01:18:15.855Z,4.97
2022-11-01T01:20:43.075Z,4.60
2022-11-01T01:23:10.281Z,5.00
2022-11-01T01:25:40.353Z,4.50
2022-11-01T01:28:07.816Z,4.63
2022-11-01T01:30:35.225Z,4.80
2022-11-01T01:33:02.617Z,4.80
2022-11-01T01:35:29.939Z,4.75
2022-11-01T01:37:57.238Z,4.70
2022-11-01T01:40:24.510Z,4.93
2022-11-01T01:42:51.778Z,4.63
2022-11-01T01:45:25.179Z,4.63
2022-11-01T01:47:53.470Z,5.20
2022-11-01T01:50:20.704Z,4.75
2022-11-01T01:53:00.107Z,5.00
2022-11-01T01:55:30.679Z,4.63
2022-11-01T01:57:58.510Z,5.13
2022-11-01T02:00:26.276Z,4.60
2022-11-01T02:02:53.579Z,4.38
2022-11-01T02:05:24.573Z,4.80
2022-11-01T02:07:52.088Z,5.32
2022-11-01T02:10:19.624Z,5.00
2022-11-01T02:12:48.706Z,4.43
2022-11-01T02:15:16.839Z,4.55
2022-11-01T02:17:54.755Z,4.40
2022-11-01T02:20:43.177Z,4.88
2022-11-01T02:23:29.241Z,4.63
2022-11-01T02:26:15.600Z,4.55
2022-11-01T02:29:05.654Z,4.38
2022-11-01T02:31:46.079Z,4.17
2022-11-01T02:34:25.520Z,4.75
2022-11-01T02:36:57.540Z,4.50
2022-11-01T02:39:28.700Z,5.13
2022-11-01T02:44:34.807Z,4.20
2022-11-01T02:47:03.268Z,4.32
2022-11-01T02:49:41.436Z,5.03
2022-11-01T02:52:10.755Z,4.70
2022-11-01T02:54:43.619Z,4.75
2022-11-01T02:57:29.046Z,4.35
2022-11-01T03:00:03.224Z,4.80
2022-11-01T03:02:50.730Z,5.22
2022-11-01T03:05:22.356Z,4.93
2022-11-01T03:07:52.295Z,5.10
2022-11-01T03:10:21.744Z,5.28
2022-11-01T03:13:07.808Z,5.53
2022-11-01T03:15:39.990Z,6.05
2022-11-01T03:18:13.492Z,6.10
2022-11-01T03:20:47.828Z,6.50
2022-11-01T03:23:20.656Z,6.47
2022-11-01T03:25:49.412Z,6.47
2022-11-01T03:28:16.640Z,5.68
2022-11-01T03:30:47.185Z,6.30
2022-11-01T03:33:15.604Z,6.13
2022-11-01T03:35:45.421Z,5.93
2022-11-01T03:38:16.509Z,5.90
2022-11-01T03:43:12.436Z,5.57
2022-11-01T03:45:40.893Z,5.63
2022-11-01T03:48:08.488Z,6.25
2022-11-01T03:50:35.867Z,5.60
2022-11-01T03:53:03.109Z,5.97
2022-11-01T03:55:30.427Z,6.80
2022-11-01T03:57:58.914Z,6.47
2022-11-01T04:00:27.534Z,6.18
2022-11-01T04:02:55.604Z,5.82
2022-11-01T04:05:23.944Z,5.50
2022-11-01T04:07:51.668Z,5.78
2022-11-01T04:10:19.741Z,6.45
2022-11-01T04:12:47.574Z,6.72
2022-11-01T04:15:33.849Z,6.80
2022-11-01T04:18:34.640Z,6.95
2022-11-01T04:21:07.091Z,6.05
2022-11-01T04:23:34.695Z,6.00
2022-11-01T04:26:02.316Z,5.78
2022-11-01T04:28:29.541Z,5.25
2022-11-01T04:30:56.810Z,5.80
2022-11-01T04:33:24.113Z,6.28
2022-11-01T04:35:51.401Z,6.05
2022-11-01T04:38:18.683Z,5.43
2022-11-01T04:40:45.940Z,4.70
2022-11-01T04:43:13.508Z,5.95
2022-11-01T04:45:41.090Z,5.30
2022-11-01T04:48:17.032Z,5.85
2022-11-01T04:50:45.633Z,5.13
2022-11-01T04:53:13.103Z,5.82
2022-11-01T04:55:40.497Z,5.25
2022-11-01T04:58:08.681Z,5.10
2022-11-01T05:00:35.985Z,5.78
2022-11-01T05:03:04.814Z,5.43
2022-11-01T05:05:32.491Z,5.32
2022-11-01T05:10:28.883Z,5.60
2022-11-01T05:12:56.168Z,5.78
2022-11-01T05:15:23.513Z,6.05
2022-11-01T05:17:50.782Z,5.13
2022-11-01T05:20:18.044Z,6.00
2022-11-01T05:22:45.604Z,5.53
2022-11-01T05:25:12.962Z,5.35
2022-11-01T05:27:40.203Z,5.45
2022-11-01T05:30:08.151Z,5.75
2022-11-01T05:32:38.464Z,5.70
2022-11-01T05:35:06.398Z,6.25
2022-11-01T05:37:35.856Z,6.03
2022-11-01T05:40:03.423Z,6.20
2022-11-01T05:42:30.665Z,7.00
2022-11-01T05:44:57.922Z,6.50
2022-11-01T05:47:25.175Z,7.18
2022-11-01T05:49:52.411Z,7.20
2022-11-01T05:52:19.655Z,6.88
2022-11-01T05:54:46.951Z,8.00
2022-11-01T05:57:14.212Z,8.07
2022-11-01T05:59:41.449Z,9.13
2022-11-01T06:02:08.773Z,8.75
2022-11-01T06:04:35.995Z,10.23
2022-11-01T06:07:04.234Z,9.63
2022-11-01T06:09:31.484Z,9.48
2022-11-01T06:11:58.736Z,9.98
2022-11-01T06:14:26.064Z,9.20
2022-11-01T06:16:53.320Z,9.82
2022-11-01T06:19:20.601Z,11.73
2022-11-01T06:21:47.846Z,16.60
2022-11-01T06:24:15.132Z,15.05
2022-11-01T06:26:42.427Z,14.20
2022-11-01T06:29:09.676Z,11.43
2022-11-01T06:31:37.157Z,9.35
2022-11-01T06:34:04.548Z,8.75
2022-11-01T06:36:31.773Z,8.88
2022-11-01T06:38:59.023Z,8.23
2022-11-01T06:41:26.256Z,8.10
2022-11-01T06:43:53.492Z,7.80
2022-11-01T06:46:20.783Z,12.88
2022-11-01T06:48:49.149Z,12.20
2022-11-01T06:51:16.421Z,14.40
2022-11-01T06:53:43.829Z,14.20
2022-11-01T06:56:11.089Z,14.35
2022-11-01T06:58:38.326Z,13.23
2022-11-01T07:01:05.726Z,11.00
2022-11-01T07:03:33.043Z,11.02
2022-11-01T07:06:01.128Z,10.98
2022-11-01T07:08:28.359Z,10.52
2022-11-01T07:10:55.748Z,10.98
2022-11-01T07:13:23.002Z,10.50
2022-11-01T07:15:50.278Z,9.63
2022-11-01T07:18:17.572Z,9.82
2022-11-01T07:23:17.769Z,10.05
2022-11-01T07:25:45.155Z,9.68
2022-11-01T07:28:12.455Z,10.75
2022-11-01T07:30:39.705Z,9.45
2022-11-01T07:33:07.376Z,10.00
2022-11-01T07:35:34.996Z,12.90
2022-11-01T07:38:05.064Z,13.48
2022-11-01T07:40:36.444Z,13.27
2022-11-01T07:43:04.370Z,14.52
2022-11-01T07:45:33.095Z,11.05
2022-11-01T07:48:04.984Z,9.93
2022-11-01T07:50:33.439Z,10.38
2022-11-01T07:53:11.340Z,11.63
2022-11-01T07:55:38.998Z,17.25
2022-11-01T07:58:09.155Z,15.82
2022-11-01T08:00:36.655Z,14.68
2022-11-01T08:03:05.202Z,11.77
2022-11-01T08:05:32.976Z,12.73
2022-11-01T08:08:01.213Z,11.55
2022-11-01T08:10:29.358Z,12.05
2022-11-01T08:13:04.139Z,13.70
2022-11-01T08:15:31.399Z,14.15
2022-11-01T08:17:59.434Z,14.68
2022-11-01T08:20:27.571Z,15.68
2022-11-01T08:22:55.107Z,33.22
2022-11-01T08:25:22.412Z,24.45
2022-11-01T08:27:49.671Z,16.58
2022-11-01T08:30:18.001Z,14.80
2022-11-01T08:32:45.505Z,13.80
2022-11-01T08:35:12.882Z,12.13
2022-11-01T08:38:00.397Z,11.48
2022-11-01T08:40:31.244Z,10.65
2022-11-01T08:42:58.821Z,11.75
2022-11-01T08:45:26.437Z,10.80
2022-11-01T08:48:03.725Z,11.25
2022-11-01T08:50:31.656Z,11.13
2022-11-01T08:52:59.082Z,11.38
2022-11-01T08:55:26.623Z,11.57
2022-11-01T08:57:53.889Z,11.20
2022-11-01T09:00:21.527Z,10.90
2022-11-01T09:02:48.826Z,12.27
2022-11-01T09:05:16.236Z,13.45
2022-11-01T09:07:43.492Z,12.85
2022-11-01T09:10:11.975Z,14.98
2022-11-01T09:15:11.545Z,13.95
2022-11-01T09:17:38.800Z,14.82
2022-11-01T09:20:06.304Z,17.48
2022-11-01T09:22:33.562Z,14.02
2022-11-01T09:25:00.878Z,14.43
2022-11-01T09:27:28.665Z,12.02
2022-11-01T09:29:55.901Z,11.35
2022-11-01T09:32:23.276Z,10.48
2022-11-01T09:34:50.553Z,12.13
2022-11-01T09:37:18.103Z,12.20
2022-11-01T09:39:45.362Z,11.20
2022-11-01T09:42:24.953Z,10.82
2022-11-01T09:44:54.878Z,10.60
2022-11-01T09:47:23.739Z,11.45
2022-11-01T09:49:56.588Z,11.20
2022-11-01T09:52:24.776Z,17.15
2022-11-01T09:54:52.388Z,11.95
2022-11-01T09:57:35.384Z,12.07
2022-11-01T10:00:05.757Z,12.45
2022-11-01T10:02:42.184Z,12.80
2022-11-01T10:05:28.499Z,12.20
2022-11-01T10:08:02.448Z,12.13
2022-11-01T10:10:48.411Z,12.85
2022-11-01T10:13:18.499Z,13.73
2022-11-01T10:15:54.955Z,14.65
2022-11-01T10:18:27.409Z,12.73
2022-11-01T10:20:56.651Z,13.00
2022-11-01T10:23:32.201Z,12.98
2022-11-01T10:25:59.502Z,12.90
2022-11-01T10:28:34.356Z,14.27
2022-11-01T10:31:06.383Z,12.98
2022-11-01T10:33:40.002Z,12.77
2022-11-01T10:36:13.392Z,11.63
2022-11-01T10:39:16.578Z,11.30
2022-11-01T10:41:37.769Z,12.35
2022-11-01T10:44:08.027Z,11.48
2022-11-01T10:46:39.327Z,12.53
2022-11-01T10:49:12.566Z,13.05
2022-11-01T10:51:41.695Z,13.07
2022-11-01T10:54:16.262Z,13.25
2022-11-01T10:56:46.102Z,13.20
2022-11-01T10:59:25.774Z,11.57
2022-11-01T11:01:54.028Z,12.80
2022-11-01T11:04:22.875Z,14.02
2022-11-01T11:06:50.613Z,14.65
2022-11-01T11:09:20.893Z,13.25
2022-11-01T11:11:48.925Z,13.17
2022-11-01T11:14:16.892Z,14.75
2022-11-01T11:16:55.792Z,14.50
2022-11-01T11:19:33.411Z,14.55
2022-11-01T11:22:01.105Z,13.85
2022-11-01T11:24:38.941Z,13.98
2022-11-01T11:27:13.114Z,14.45
2022-11-01T11:29:49.224Z,14.05
2022-11-01T11:32:21.363Z,13.07
2022-11-01T11:35:09.156Z,13.63
2022-11-01T11:37:39.246Z,14.18
2022-11-01T11:40:26.014Z,13.85
2022-11-01T11:42:54.911Z,13.43
2022-11-01T11:45:22.429Z,13.68
2022-11-01T11:47:49.839Z,13.38
2022-11-01T11:50:17.046Z,13.93
2022-11-01T11:52:44.352Z,12.95
2022-11-01T11:55:31.314Z,13.05
2022-11-01T11:57:58.788Z,13.88
2022-11-01T12:00:30.294Z,22.70
2022-11-01T12:02:57.621Z,13.48
2022-11-01T12:05:26.812Z,15.15
2022-11-01T12:07:55.046Z,13.93
2022-11-01T12:10:31.597Z,14.65
2022-11-01T12:12:59.475Z,13.40
2022-11-01T12:15:28.297Z,14.88
2022-11-01T12:17:56.256Z,14.52
2022-11-01T12:20:27.020Z,15.10
2022-11-01T12:23:33.716Z,14.43
2022-11-01T12:26:02.486Z,14.73
2022-11-01T12:28:29.692Z,14.93
2022-11-01T12:30:59.454Z,15.32
2022-11-01T12:33:49.741Z,15.02
2022-11-01T12:36:19.210Z,14.82
2022-11-01T12:38:49.513Z,16.60
2022-11-01T12:41:37.478Z,15.97
2022-11-01T12:44:09.423Z,15.68
2022-11-01T12:46:39.852Z,16.40
2022-11-01T12:49:16.388Z,15.98
2022-11-01T12:51:46.797Z,14.32
2022-11-01T12:54:14.030Z,15.70
2022-11-01T12:56:41.305Z,19.85
2022-11-01T12:59:12.233Z,21.20
2022-11-01T13:01:48.888Z,17.42
2022-11-01T13:04:22.376Z,16.10
2022-11-01T13:06:52.620Z,16.63
2022-11-01T13:09:22.592Z,16.40
2022-11-01T13:11:52.934Z,15.50
2022-11-01T13:14:26.075Z,16.70
2022-11-01T13:16:59.538Z,17.33
2022-11-01T13:19:41.317Z,17.25
2022-11-01T13:22:17.318Z,19.05
2022-11-01T13:24:44.748Z,18.38
2022-11-01T13:27:17.844Z,18.75
2022-11-01T13:29:59.332Z,20.52
2022-11-01T13:32:35.502Z,18.27
2022-11-01T13:35:02.748Z,19.30
2022-11-01T13:37:30.071Z,17.90
2022-11-01T13:39:57.304Z,19.23
2022-11-01T13:42:29.005Z,19.23
2022-11-01T13:45:14.924Z,19.95
2022-11-01T13:50:16.654Z,23.40
2022-11-01T13:52:49.647Z,22.08
2022-11-01T13:55:24.219Z,23.40
2022-11-01T13:57:54.240Z,23.88
2022-11-01T14:00:49.457Z,22.85
2022-11-01T14:03:23.045Z,22.90
2022-11-01T14:06:11.628Z,26.15
2022-11-01T14:08:40.155Z,24.17
2022-11-01T14:11:08.057Z,24.33
2022-11-01T14:13:40.322Z,23.70
2022-11-01T14:16:19.453Z,24.20
2022-11-01T14:19:05.180Z,23.83
2022-11-01T14:21:40.542Z,22.25
2022-11-01T14:24:08.373Z,22.63
2022-11-01T14:26:45.897Z,21.40
2022-11-01T14:29:13.338Z,22.05
2022-11-01T14:31:41.234Z,20.92
2022-11-01T14:34:10.026Z,22.00
2022-11-01T14:36:39.988Z,20.92
2022-11-01T14:39:10.016Z,22.45
2022-11-01T14:41:40.710Z,21.13
2022-11-01T14:44:12.388Z,21.77
2022-11-01T14:46:46.388Z,21.75
2022-11-01T14:49:33.630Z,22.63
2022-11-01T14:52:04.279Z,22.05
2022-11-01T14:54:32.142Z,24.13
2022-11-01T14:56:59.660Z,22.42
2022-11-01T14:59:28.458Z,23.52
2022-11-01T15:02:02.425Z,23.65
2022-11-01T15:04:31.642Z,25.02
2022-11-01T15:06:59.462Z,24.98
2022-11-01T15:09:28.350Z,25.17
2022-11-01T15:11:57.350Z,25.60
2022-11-01T15:14:29.997Z,24.98
2022-11-01T15:16:58.527Z,25.42
2022-11-01T15:19:28.552Z,26.58
2022-11-01T15:22:01.243Z,27.63
2022-11-01T15:24:28.858Z,26.58
2022-11-01T15:26:56.177Z,25.65
2022-11-01T15:29:25.585Z,26.52
2022-11-01T15:31:56.909Z,25.65
2022-11-01T15:34:37.157Z,24.42
2022-11-01T15:37:24.696Z,25.38
2022-11-01T15:39:52.231Z,23.23
2022-11-01T15:42:23.645Z,23.90
2022-11-01T15:44:51.060Z,25.83
2022-11-01T15:47:23.468Z,27.75
2022-11-01T15:50:02.793Z,27.52
2022-11-01T15:52:31.757Z,24.90
2022-11-01T15:55:19.080Z,23.08
2022-11-01T15:57:52.494Z,22.83
2022-11-01T16:00:24.339Z,23.67
2022-11-01T16:02:54.748Z,22.75
2022-11-01T16:05:25.987Z,21.73
2022-11-01T16:07:53.541Z,24.38
2022-11-01T16:10:22.456Z,22.67
2022-11-01T16:12:50.758Z,25.20
2022-11-01T16:15:21.119Z,24.30
2022-11-01T16:17:48.742Z,24.25
2022-11-01T16:20:52.522Z,26.02
2022-11-01T16:23:28.558Z,25.73
2022-11-01T16:26:03.270Z,26.02
2022-11-01T16:28:33.056Z,27.17
2022-11-01T16:31:00.462Z,27.85
2022-11-01T16:33:30.642Z,26.02
2022-11-01T16:35:57.898Z,27.02
2022-11-01T16:38:45.698Z,25.00
2022-11-01T16:41:20.241Z,24.88
2022-11-01T16:43:53.915Z,25.45
2022-11-01T16:46:21.838Z,24.80
2022-11-01T16:48:54.939Z,25.85
2022-11-01T16:51:25.126Z,25.08
2022-11-01T16:53:52.376Z,25.73
2022-11-01T16:56:36.261Z,24.80
2022-11-01T16:59:09.070Z,25.95
2022-11-01T17:01:36.764Z,25.20
2022-11-01T17:04:04.878Z,24.27
2022-11-01T17:06:36.163Z,25.83
2022-11-01T17:09:10.713Z,24.90
2022-11-01T17:11:37.979Z,23.60
2022-11-01T17:14:05.233Z,26.00
2022-11-01T17:16:32.894Z,24.20
2022-11-01T17:19:00.843Z,23.77
2022-11-01T17:21:29.943Z,31.35
2022-11-01T17:23:57.808Z,25.40
2022-11-01T17:26:25.117Z,27.00
2022-11-01T17:28:52.667Z,26.45
2022-11-01T17:31:20.066Z,26.48
2022-11-01T17:33:48.167Z,26.85
2022-11-01T17:36:16.378Z,26.30
2022-11-01T17:38:45.024Z,26.67
2022-11-01T17:41:15.391Z,26.77
2022-11-01T17:43:43.250Z,26.65
2022-11-01T17:46:14.402Z,27.40
2022-11-01T17:51:08.846Z,24.83
2022-11-01T17:53:39.348Z,23.17
2022-11-01T17:56:07.076Z,25.02
2022-11-01T17:58:34.531Z,24.90
2022-11-01T18:01:01.934Z,24.92
2022-11-01T18:03:29.313Z,24.50
2022-11-01T18:05:57.473Z,23.10
2022-11-01T18:08:26.586Z,23.23
2022-11-01T18:11:29.584Z,25.05
2022-11-01T18:14:04.074Z,23.70
2022-11-01T18:16:43.416Z,25.02
2022-11-01T18:19:25.817Z,24.35
2022-11-01T18:22:02.170Z,25.48
2022-11-01T18:24:38.022Z,25.88
2022-11-01T18:27:14.518Z,25.35
2022-11-01T18:29:42.821Z,24.02
2022-11-01T18:32:16.576Z,23.05
2022-11-01T18:34:50.447Z,21.88
2022-11-01T18:37:21.228Z,22.00
2022-11-01T18:39:52.194Z,21.40
2022-11-01T18:42:19.477Z,75.97
2022-11-01T18:44:47.139Z,34.33
2022-11-01T18:47:25.308Z,23.50
2022-11-01T18:49:53.321Z,23.50
2022-11-01T18:52:21.019Z,23.70
2022-11-01T18:54:55.142Z,24.42
2022-11-01T18:57:24.782Z,22.77
2022-11-01T18:59:53.655Z,24.08
2022-11-01T19:02:27.111Z,23.50
2022-11-01T19:05:03.761Z,23.88
2022-11-01T19:07:44.501Z,24.58
2022-11-01T19:10:19.870Z,23.55
2022-11-01T19:12:48.342Z,24.63
2022-11-01T19:15:19.056Z,25.80
2022-11-01T19:17:49.981Z,25.05
2022-11-01T19:20:23.572Z,25.60
2022-11-01T19:22:50.877Z,24.95
2022-11-01T19:25:18.167Z,25.15
2022-11-01T19:27:45.752Z,25.48
2022-11-01T19:30:26.996Z,24.02
2022-11-01T19:35:22.883Z,24.83
2022-11-01T19:37:52.066Z,24.13
2022-11-01T19:40:27.809Z,24.13
2022-11-01T19:42:56.313Z,24.17
2022-11-01T19:45:25.126Z,25.15
2022-11-01T19:47:52.602Z,25.70
2022-11-01T19:50:22.067Z,24.58
2022-11-01T19:52:51.371Z,33.50
2022-11-01T19:55:37.017Z,27.83
2022-11-01T19:58:22.601Z,27.25
2022-11-01T20:00:50.431Z,25.88
2022-11-01T20:03:27.105Z,24.40
2022-11-01T20:05:54.995Z,25.00
2022-11-01T20:08:42.566Z,25.13
2022-11-01T20:11:09.949Z,25.88
2022-11-01T20:13:37.234Z,26.13
2022-11-01T20:16:04.468Z,24.20
2022-11-01T20:18:31.721Z,26.48
2022-11-01T20:20:59.166Z,25.33
2022-11-01T20:23:27.196Z,27.02
2022-11-01T20:25:55.367Z,27.23
2022-11-01T20:28:22.658Z,27.52
2022-11-01T20:30:49.884Z,27.67
2022-11-01T20:33:17.265Z,27.92
2022-11-01T20:35:44.484Z,27.52
2022-11-01T20:38:11.729Z,27.27
2022-11-01T20:40:39.069Z,26.40
2022-11-01T20:43:07.074Z,28.42
2022-11-01T20:45:35.047Z,28.67
2022-11-01T20:48:02.486Z,27.42
2022-11-01T20:50:29.977Z,28.95
2022-11-01T20:52:57.198Z,28.48
2022-11-01T20:55:24.509Z,30.85
2022-11-01T20:57:52.147Z,30.48
2022-11-01T21:00:19.495Z,30.15
2022-11-01T21:02:47.522Z,30.58
2022-11-01T21:05:23.268Z,30.80
2022-11-01T21:07:53.982Z,29.77
2022-11-01T21:10:29.357Z,30.35
2022-11-01T21:12:57.114Z,32.17
2022-11-01T21:15:24.334Z,31.23
2022-11-01T21:17:52.559Z,30.30
2022-11-01T21:20:23.471Z,29.45
2022-11-01T21:23:00.610Z,28.98
2022-11-01T21:25:28.057Z,30.60
2022-11-01T21:27:56.157Z,28.02
2022-11-01T21:30:23.421Z,28.98
2022-11-01T21:32:51.881Z,29.42
2022-11-01T21:35:21.831Z,27.90
2022-11-01T21:37:51.137Z,27.67
2022-11-01T21:40:36.859Z,28.70
2022-11-01T21:43:04.503Z,28.25
2022-11-01T21:45:32.538Z,29.50
2022-11-01T21:48:14.708Z,30.73
2022-11-01T21:50:41.954Z,31.15
2022-11-01T21:53:09.196Z,31.00
2022-11-01T21:55:36.488Z,29.30
2022-11-01T21:58:03.719Z,30.10
2022-11-01T22:00:30.972Z,32.40
2022-11-01T22:02:58.316Z,32.00
2022-11-01T22:05:25.567Z,30.83
2022-11-01T22:07:52.792Z,31.63
2022-11-01T22:10:20.051Z,32.40
2022-11-01T22:12:47.278Z,31.25
2022-11-01T22:15:14.747Z,32.13
2022-11-01T22:17:42.041Z,31.33
2022-11-01T22:20:09.610Z,31.80
2022-11-01T22:22:36.915Z,32.50
2022-11-01T22:25:04.215Z,31.77
2022-11-01T22:27:31.458Z,32.85
2022-11-01T22:29:58.829Z,32.10
2022-11-01T22:32:26.097Z,32.25
2022-11-01T22:34:53.373Z,32.60
2022-11-01T22:37:20.650Z,31.40
2022-11-01T22:39:52.856Z,30.88
2022-11-01T22:42:21.109Z,30.73
2022-11-01T22:44:49.243Z,31.85
2022-11-01T22:47:22.875Z,32.88
2022-11-01T22:49:52.459Z,32.55
2022-11-01T22:52:31.768Z,33.65
2022-11-01T22:55:11.214Z,36.42
2022-11-01T22:57:41.459Z,34.50
2022-11-01T23:00:27.469Z,38.60
2022-11-01T23:03:00.708Z,34.53
2022-11-01T23:05:28.759Z,35.97
2022-11-01T23:07:57.062Z,35.30
2022-11-01T23:10:24.308Z,38.67
2022-11-01T23:13:22.518Z,35.00
2022-11-01T23:15:51.962Z,35.75
2022-11-01T23:18:21.647Z,36.60
2022-11-01T23:20:52.663Z,37.63
2022-11-01T23:23:20.604Z,37.90
2022-11-01T23:25:47.967Z,36.60
2022-11-01T23:28:15.903Z,35.92
2022-11-01T23:30:43.649Z,35.90
2022-11-01T23:33:15.900Z,34.78
2022-11-01T23:35:44.765Z,34.97
2022-11-01T23:38:19.290Z,33.63
2022-11-01T23:40:46.665Z,32.58
2022-11-01T23:43:32.818Z,32.83
2022-11-01T23:46:00.591Z,33.60
2022-11-01T23:48:27.802Z,31.92
2022-11-01T23:50:55.062Z,31.23
2022-11-01T23:53:27.920Z,30.65
2022-11-01T23:55:55.353Z,29.73
2022-11-01T23:58:27.099Z,32.65
